createdAt,value
2017-12-22T00:02:05.639Z,4.90
2017-12-22T00:04:33.477Z,4.90
2017-12-22T00:07:01.960Z,4.80
2017-12-22T00:09:29.782Z,4.80
2017-12-22T00:11:58.812Z,4.80
2017-12-22T00:14:26.607Z,4.70
2017-12-22T00:16:54.498Z,4.80
2017-12-22T00:19:22.219Z,4.70
2017-12-22T00:21:49.938Z,4.70
2017-12-22T00:24:17.716Z,4.60
2017-12-22T00:26:46.208Z,4.50
2017-12-22T00:29:14.046Z,4.50
2017-12-22T00:31:41.796Z,4.50
2017-12-22T00:34:09.540Z,4.40
2017-12-22T00:36:38.213Z,4.40
2017-12-22T00:39:06.038Z,4.40
2017-12-22T00:41:33.748Z,4.50
2017-12-22T00:44:02.045Z,4.40
2017-12-22T00:46:29.887Z,4.40
2017-12-22T00:48:57.715Z,4.40
2017-12-22T00:51:25.542Z,4.30
2017-12-22T00:53:53.270Z,4.30
2017-12-22T00:56:21.001Z,4.20
2017-12-22T00:58:49.095Z,4.20
2017-12-22T01:01:17.542Z,4.10
2017-12-22T01:03:45.276Z,4.10
2017-12-22T01:06:13.040Z,4.10
2017-12-22T01:08:40.847Z,4.00
2017-12-22T01:11:09.342Z,4.00
2017-12-22T01:13:37.102Z,3.90
2017-12-22T01:16:10.494Z,4.00
2017-12-22T01:18:43.771Z,4.00
2017-12-22T01:21:12.356Z,4.10
2017-12-22T01:23:40.865Z,4.10
2017-12-22T01:26:08.588Z,4.10
2017-12-22T01:28:36.332Z,4.10
2017-12-22T01:31:04.085Z,4.10
2017-12-22T01:33:32.239Z,4.20
2017-12-22T01:36:00.060Z,4.30
2017-12-22T01:38:27.905Z,4.40
2017-12-22T01:40:55.694Z,4.40
2017-12-22T01:43:23.701Z,4.30
2017-12-22T01:45:51.495Z,4.40
2017-12-22T01:48:19.255Z,4.40
2017-12-22T01:50:46.978Z,4.40
2017-12-22T01:53:14.761Z,4.40
2017-12-22T01:55:42.879Z,4.50
2017-12-22T01:58:10.645Z,4.40
2017-12-22T02:00:38.347Z,4.50
2017-12-22T02:03:06.369Z,4.50
2017-12-22T02:05:34.045Z,4.50
2017-12-22T02:08:01.799Z,4.50
2017-12-22T02:10:30.463Z,4.60
2017-12-22T02:12:58.225Z,4.60
2017-12-22T02:15:25.973Z,4.60
2017-12-22T02:17:53.671Z,4.60
2017-12-22T02:20:21.419Z,4.60
2017-12-22T02:22:49.215Z,4.60
2017-12-22T02:25:17.088Z,4.60
2017-12-22T02:27:44.884Z,4.60
2017-12-22T02:30:12.761Z,4.70
2017-12-22T02:32:41.189Z,4.80
2017-12-22T02:35:08.916Z,4.80
2017-12-22T02:37:36.629Z,4.90
2017-12-22T02:40:05.234Z,4.90
2017-12-22T02:42:33.015Z,5.00
2017-12-22T02:45:02.018Z,5.00
2017-12-22T02:47:29.767Z,5.00
2017-12-22T02:49:57.639Z,5.10
2017-12-22T02:52:25.532Z,5.10
2017-12-22T02:54:53.825Z,5.20
2017-12-22T02:57:21.694Z,5.30
2017-12-22T02:59:49.541Z,5.30
2017-12-22T03:02:17.249Z,5.40
2017-12-22T03:04:45.761Z,5.50
2017-12-22T03:07:13.577Z,5.50
2017-12-22T03:09:41.303Z,5.50
2017-12-22T03:12:09.053Z,5.60
2017-12-22T03:14:36.927Z,5.60
2017-12-22T03:17:04.758Z,5.70
2017-12-22T03:19:33.255Z,5.70
2017-12-22T03:22:01.773Z,5.70
2017-12-22T03:24:29.523Z,5.60
2017-12-22T03:26:57.221Z,5.60
2017-12-22T03:29:24.925Z,5.60
2017-12-22T03:31:52.759Z,5.60
2017-12-22T03:34:20.450Z,5.60
2017-12-22T03:36:48.134Z,5.70
2017-12-22T03:39:15.906Z,5.70
2017-12-22T03:41:43.621Z,5.80
2017-12-22T03:44:11.349Z,5.80
2017-12-22T03:46:39.161Z,5.80
2017-12-22T03:49:07.643Z,5.80
2017-12-22T03:51:36.275Z,5.80
2017-12-22T03:54:05.235Z,5.80
2017-12-22T03:56:33.041Z,5.80
2017-12-22T03:59:00.925Z,5.80
2017-12-22T04:01:28.709Z,5.80
2017-12-22T04:03:57.317Z,5.80
2017-12-22T04:06:26.217Z,5.80
2017-12-22T04:08:53.993Z,5.80
2017-12-22T04:11:21.745Z,5.80
2017-12-22T04:13:49.475Z,5.90
2017-12-22T04:16:17.997Z,5.90
2017-12-22T04:18:45.773Z,5.80
2017-12-22T04:21:13.639Z,5.80
2017-12-22T04:23:41.415Z,5.80
2017-12-22T04:26:09.186Z,5.80
2017-12-22T04:28:37.041Z,5.90
2017-12-22T04:31:04.791Z,5.90
2017-12-22T04:33:32.511Z,5.90
2017-12-22T04:36:01.029Z,5.90
2017-12-22T04:38:28.799Z,5.90
2017-12-22T04:40:56.545Z,5.90
2017-12-22T04:43:24.298Z,5.90
2017-12-22T04:45:52.093Z,5.90
2017-12-22T04:48:19.869Z,5.90
2017-12-22T04:50:47.592Z,5.90
2017-12-22T04:53:15.318Z,5.90
2017-12-22T04:55:43.622Z,5.90
2017-12-22T04:58:12.147Z,5.90
2017-12-22T05:00:39.915Z,5.80
2017-12-22T05:03:07.645Z,5.90
2017-12-22T05:05:35.381Z,5.90
2017-12-22T05:08:03.098Z,5.90
2017-12-22T05:10:30.826Z,5.90
2017-12-22T05:12:58.523Z,5.90
2017-12-22T05:15:26.263Z,5.90
2017-12-22T05:17:53.992Z,6.00
2017-12-22T05:20:22.034Z,6.00
2017-12-22T05:22:49.775Z,6.00
2017-12-22T05:25:17.623Z,6.00
2017-12-22T05:27:45.326Z,6.00
2017-12-22T05:30:13.146Z,6.00
2017-12-22T05:32:41.760Z,6.00
2017-12-22T05:35:09.413Z,5.90
2017-12-22T05:37:37.126Z,6.00
2017-12-22T05:40:04.823Z,6.00
2017-12-22T05:42:32.559Z,6.00
2017-12-22T05:45:00.497Z,6.00
2017-12-22T05:47:28.233Z,6.00
2017-12-22T05:49:56.065Z,5.90
2017-12-22T05:52:23.803Z,6.00
2017-12-22T05:54:51.479Z,6.00
2017-12-22T05:57:19.255Z,6.00
2017-12-22T05:59:47.733Z,6.00
2017-12-22T06:02:16.212Z,6.00
2017-12-22T06:04:43.972Z,6.00
2017-12-22T06:07:12.517Z,6.00
2017-12-22T06:09:40.215Z,6.00
2017-12-22T06:12:07.926Z,5.90
2017-12-22T06:14:35.655Z,5.90
2017-12-22T06:17:05.479Z,5.90
2017-12-22T06:19:33.959Z,6.00
2017-12-22T06:22:01.798Z,6.00
2017-12-22T06:24:29.709Z,6.00
2017-12-22T06:26:57.385Z,6.10
2017-12-22T06:29:25.131Z,6.10
2017-12-22T06:31:52.939Z,6.10
2017-12-22T06:34:20.796Z,6.10
2017-12-22T06:36:48.547Z,6.10
2017-12-22T06:39:16.300Z,6.10
2017-12-22T06:41:44.049Z,6.20
2017-12-22T06:44:11.795Z,6.20
2017-12-22T06:46:39.533Z,6.20
2017-12-22T06:49:07.251Z,6.20
2017-12-22T06:51:34.977Z,6.20
2017-12-22T06:54:03.556Z,6.20
2017-12-22T06:56:32.125Z,6.20
2017-12-22T06:58:59.859Z,6.20
2017-12-22T07:01:27.607Z,6.30
2017-12-22T07:03:56.241Z,6.40
2017-12-22T07:06:25.091Z,6.30
2017-12-22T07:08:56.160Z,6.40
2017-12-22T07:11:23.889Z,6.40
2017-12-22T07:13:51.735Z,6.40
2017-12-22T07:16:20.285Z,6.40
2017-12-22T07:18:48.784Z,6.30
2017-12-22T07:21:17.294Z,6.40
2017-12-22T07:23:45.017Z,6.30
2017-12-22T07:26:12.711Z,6.30
2017-12-22T07:28:41.257Z,6.40
2017-12-22T07:31:09.034Z,6.30
2017-12-22T07:33:36.793Z,6.40
2017-12-22T07:36:04.547Z,6.40
2017-12-22T07:38:32.344Z,6.40
2017-12-22T07:41:00.072Z,6.50
2017-12-22T07:43:28.575Z,6.50
2017-12-22T07:45:57.373Z,6.50
2017-12-22T07:48:25.103Z,6.50
2017-12-22T07:50:52.774Z,6.60
2017-12-22T07:53:20.477Z,6.60
2017-12-22T07:55:48.215Z,6.70
2017-12-22T07:58:15.891Z,6.70
2017-12-22T08:00:43.721Z,6.80
2017-12-22T08:03:11.380Z,6.80
2017-12-22T08:05:39.176Z,6.90
2017-12-22T08:08:07.018Z,6.90
2017-12-22T08:10:34.707Z,6.90
2017-12-22T08:13:03.291Z,6.90
2017-12-22T08:15:31.741Z,6.90
2017-12-22T08:17:59.425Z,6.90
2017-12-22T08:20:27.268Z,7.00
2017-12-22T08:22:55.827Z,7.00
2017-12-22T08:25:23.671Z,6.90
2017-12-22T08:27:51.365Z,7.00
2017-12-22T08:30:19.966Z,7.10
2017-12-22T08:32:47.655Z,7.10
2017-12-22T08:35:15.392Z,7.20
2017-12-22T08:37:43.207Z,7.20
2017-12-22T08:40:10.943Z,7.20
2017-12-22T08:42:38.691Z,7.20
2017-12-22T08:45:06.373Z,7.20
2017-12-22T08:47:34.929Z,7.30
2017-12-22T08:50:02.621Z,7.20
2017-12-22T08:52:30.422Z,7.30
2017-12-22T08:54:58.146Z,7.30
2017-12-22T08:57:25.885Z,7.40
2017-12-22T08:59:53.573Z,7.40
2017-12-22T09:02:22.060Z,7.50
2017-12-22T09:04:49.738Z,7.40
2017-12-22T09:07:17.409Z,7.60
2017-12-22T09:09:45.251Z,7.60
2017-12-22T09:12:13.695Z,7.70
2017-12-22T09:14:41.543Z,7.70
2017-12-22T09:17:09.234Z,7.80
2017-12-22T09:19:37.785Z,7.80
2017-12-22T09:22:05.472Z,7.90
2017-12-22T09:24:33.182Z,8.00
2017-12-22T09:27:00.827Z,8.00
2017-12-22T09:29:28.467Z,8.00
2017-12-22T09:31:56.301Z,8.10
2017-12-22T09:34:24.046Z,8.10
2017-12-22T09:36:51.907Z,8.20
2017-12-22T09:39:19.701Z,8.20
2017-12-22T09:41:47.418Z,8.40
2017-12-22T09:44:15.861Z,8.40
2017-12-22T09:46:44.176Z,8.30
2017-12-22T09:49:13.591Z,8.40
2017-12-22T09:51:41.393Z,8.40
2017-12-22T09:54:09.832Z,8.50
2017-12-22T09:56:38.283Z,8.50
2017-12-22T09:59:06.133Z,8.50
2017-12-22T10:01:33.837Z,8.60
2017-12-22T10:04:02.313Z,8.60
2017-12-22T10:06:30.924Z,8.70
2017-12-22T10:08:58.679Z,8.60
2017-12-22T10:11:26.416Z,8.70
2017-12-22T10:13:54.089Z,8.70
2017-12-22T10:16:22.579Z,8.80
2017-12-22T10:18:51.089Z,8.80
2017-12-22T10:21:18.883Z,8.80
2017-12-22T10:23:46.553Z,8.90
2017-12-22T10:26:14.233Z,8.90
2017-12-22T10:28:42.761Z,9.00
2017-12-22T10:31:10.457Z,8.90
2017-12-22T10:33:38.184Z,9.00
2017-12-22T10:36:05.995Z,9.00
2017-12-22T10:38:33.739Z,9.00
2017-12-22T10:41:01.507Z,9.00
2017-12-22T10:43:29.186Z,9.00
2017-12-22T10:45:56.905Z,9.10
2017-12-22T10:48:24.898Z,9.10
2017-12-22T10:50:53.356Z,9.20
2017-12-22T10:53:21.106Z,9.10
2017-12-22T10:55:48.853Z,9.20
2017-12-22T10:58:17.427Z,9.30
2017-12-22T11:00:45.262Z,9.20
2017-12-22T11:03:13.076Z,9.30
2017-12-22T11:05:41.571Z,9.30
2017-12-22T11:08:09.299Z,9.20
2017-12-22T11:10:37.784Z,9.40
2017-12-22T11:13:07.041Z,9.40
2017-12-22T11:15:34.716Z,9.40
2017-12-22T11:18:02.838Z,9.40
2017-12-22T11:20:30.660Z,9.40
2017-12-22T11:22:58.337Z,9.50
2017-12-22T11:25:26.002Z,9.60
2017-12-22T11:27:53.708Z,9.70
2017-12-22T11:30:22.013Z,9.70
2017-12-22T11:32:49.835Z,9.80
2017-12-22T11:35:17.651Z,9.80
2017-12-22T11:37:45.607Z,9.90
2017-12-22T11:40:13.349Z,9.90
2017-12-22T11:42:41.325Z,9.90
2017-12-22T11:45:09.081Z,9.90
2017-12-22T11:47:36.805Z,10.00
2017-12-22T11:50:05.282Z,10.00
2017-12-22T11:52:33.770Z,10.00
2017-12-22T11:55:01.475Z,9.90
2017-12-22T11:57:29.146Z,9.90
2017-12-22T11:59:56.971Z,9.90
2017-12-22T12:02:25.473Z,9.80
2017-12-22T12:04:54.353Z,9.80
2017-12-22T12:07:23.145Z,9.80
2017-12-22T12:09:50.987Z,9.80
2017-12-22T12:12:18.755Z,9.80
2017-12-22T12:14:48.212Z,9.80
2017-12-22T12:17:15.901Z,9.80
2017-12-22T12:19:43.621Z,9.80
2017-12-22T12:22:11.802Z,9.80
2017-12-22T12:24:39.526Z,9.80
2017-12-22T12:27:08.032Z,9.80
2017-12-22T12:29:35.827Z,9.70
2017-12-22T12:32:03.562Z,9.70
2017-12-22T12:34:31.282Z,9.70
2017-12-22T12:36:59.783Z,9.70
2017-12-22T12:39:27.521Z,9.70
2017-12-22T12:41:55.265Z,9.70
2017-12-22T12:44:23.063Z,9.80
2017-12-22T12:46:51.367Z,9.70
2017-12-22T12:49:19.087Z,9.70
2017-12-22T12:51:46.940Z,9.70
2017-12-22T12:54:14.744Z,9.70
2017-12-22T12:56:43.245Z,9.60
2017-12-22T12:59:10.941Z,9.50
2017-12-22T13:01:39.634Z,9.50
2017-12-22T13:04:07.506Z,9.40
2017-12-22T13:06:35.898Z,9.30
2017-12-22T13:09:03.651Z,9.20
2017-12-22T13:11:31.462Z,9.20
2017-12-22T13:14:00.296Z,9.10
2017-12-22T13:16:28.027Z,9.10
2017-12-22T13:18:55.753Z,9.00
2017-12-22T13:21:23.959Z,9.00
2017-12-22T13:23:51.809Z,9.00
2017-12-22T13:26:20.317Z,9.00
2017-12-22T13:28:48.842Z,8.90
2017-12-22T13:31:16.574Z,8.90
2017-12-22T13:33:44.931Z,8.90
2017-12-22T13:36:12.708Z,8.90
2017-12-22T13:38:40.652Z,8.90
2017-12-22T13:41:08.473Z,8.90
2017-12-22T13:43:38.029Z,8.90
2017-12-22T13:46:07.746Z,9.00
2017-12-22T13:48:35.871Z,8.90
2017-12-22T13:51:04.957Z,9.00
2017-12-22T13:53:36.661Z,9.00
2017-12-22T13:56:04.750Z,9.00
2017-12-22T13:58:34.303Z,9.00
2017-12-22T14:01:03.114Z,9.10
2017-12-22T14:03:31.678Z,8.90
2017-12-22T14:06:00.464Z,8.90
2017-12-22T14:08:30.159Z,8.80
2017-12-22T14:10:58.237Z,8.70
2017-12-22T14:13:26.000Z,8.70
2017-12-22T14:15:53.712Z,8.60
2017-12-22T14:18:22.104Z,8.50
2017-12-22T14:20:50.976Z,8.40
2017-12-22T14:23:19.486Z,8.30
2017-12-22T14:25:47.415Z,8.30
2017-12-22T14:28:15.956Z,8.30
2017-12-22T14:30:44.446Z,8.30
2017-12-22T14:33:12.148Z,8.20
2017-12-22T14:35:41.277Z,8.20
2017-12-22T14:38:09.078Z,8.20
2017-12-22T14:40:36.806Z,8.20
2017-12-22T14:43:04.645Z,8.20
2017-12-22T14:45:33.136Z,8.20
2017-12-22T14:48:01.750Z,8.10
2017-12-22T14:50:29.610Z,8.10
2017-12-22T14:52:57.924Z,8.10
2017-12-22T14:55:26.569Z,8.10
2017-12-22T14:57:54.405Z,8.00
2017-12-22T15:00:22.106Z,8.00
2017-12-22T15:02:49.862Z,8.00
2017-12-22T15:05:17.631Z,8.00
2017-12-22T15:07:45.450Z,8.00
2017-12-22T15:10:14.850Z,8.00
2017-12-22T15:12:43.455Z,7.90
2017-12-22T15:15:11.238Z,7.90
2017-12-22T15:17:39.048Z,7.90
2017-12-22T15:20:06.797Z,7.80
2017-12-22T15:22:34.528Z,7.80
2017-12-22T15:25:02.305Z,7.80
2017-12-22T15:27:30.126Z,7.70
2017-12-22T15:29:58.617Z,7.70
2017-12-22T15:32:27.104Z,7.70
2017-12-22T15:34:54.923Z,7.60
2017-12-22T15:37:22.655Z,7.70
2017-12-22T15:39:50.448Z,7.70
2017-12-22T15:42:18.242Z,7.70
2017-12-22T15:44:46.013Z,7.60
2017-12-22T15:47:14.580Z,7.70
2017-12-22T15:49:42.406Z,7.60
2017-12-22T15:52:10.258Z,7.60
2017-12-22T15:54:38.021Z,7.60
2017-12-22T15:57:05.770Z,7.50
2017-12-22T15:59:34.346Z,7.50
2017-12-22T16:02:02.908Z,7.50
2017-12-22T16:04:30.641Z,7.50
2017-12-22T16:06:58.412Z,7.40
2017-12-22T16:09:26.196Z,7.40
2017-12-22T16:11:53.956Z,7.30
2017-12-22T16:14:21.667Z,7.30
2017-12-22T16:16:49.453Z,7.30
2017-12-22T16:19:17.797Z,7.20
2017-12-22T16:21:45.713Z,7.20
2017-12-22T16:24:13.445Z,7.10
2017-12-22T16:26:41.270Z,7.10
2017-12-22T16:29:09.821Z,7.00
2017-12-22T16:31:37.613Z,6.90
2017-12-22T16:34:05.364Z,6.90
2017-12-22T16:36:33.422Z,6.80
2017-12-22T16:39:01.160Z,6.80
2017-12-22T16:41:29.493Z,6.80
2017-12-22T16:43:57.312Z,6.80
2017-12-22T16:46:25.712Z,6.80
2017-12-22T16:48:53.416Z,6.70
2017-12-22T16:51:22.043Z,6.80
2017-12-22T16:53:50.442Z,6.70
2017-12-22T16:56:18.234Z,6.70
2017-12-22T16:58:46.747Z,6.80
2017-12-22T17:01:14.548Z,6.80
2017-12-22T17:03:42.346Z,6.80
2017-12-22T17:06:10.245Z,6.90
2017-12-22T17:08:37.992Z,6.90
2017-12-22T17:11:05.824Z,6.90
2017-12-22T17:13:33.589Z,6.90
2017-12-22T17:16:02.141Z,6.90
2017-12-22T17:18:29.838Z,6.90
2017-12-22T17:20:57.574Z,6.90
2017-12-22T17:23:25.568Z,6.90
2017-12-22T17:25:53.254Z,7.00
2017-12-22T17:28:21.005Z,7.00
2017-12-22T17:30:49.168Z,7.00
2017-12-22T17:33:18.054Z,7.10
2017-12-22T17:35:45.784Z,7.10
2017-12-22T17:38:13.580Z,7.20
2017-12-22T17:40:41.286Z,7.10
2017-12-22T17:43:09.083Z,7.10
2017-12-22T17:45:37.600Z,7.20
2017-12-22T17:48:05.323Z,7.10
2017-12-22T17:50:33.146Z,7.20
2017-12-22T17:53:01.652Z,7.20
2017-12-22T17:55:29.388Z,7.20
2017-12-22T17:57:57.950Z,7.30
2017-12-22T18:00:25.764Z,7.20
2017-12-22T18:02:54.206Z,7.30
2017-12-22T18:05:21.862Z,7.30
2017-12-22T18:07:49.562Z,7.30
2017-12-22T18:10:17.269Z,7.30
2017-12-22T18:12:45.064Z,7.30
2017-12-22T18:15:14.435Z,7.20
2017-12-22T18:17:42.142Z,7.20
2017-12-22T18:20:09.984Z,7.30
2017-12-22T18:22:37.702Z,7.30
2017-12-22T18:25:05.442Z,7.30
2017-12-22T18:27:33.321Z,7.40
2017-12-22T18:30:01.040Z,7.40
2017-12-22T18:32:28.710Z,7.40
2017-12-22T18:34:56.543Z,7.30
2017-12-22T18:37:25.010Z,7.40
2017-12-22T18:39:52.660Z,7.30
2017-12-22T18:42:20.500Z,7.40
2017-12-22T18:44:48.945Z,7.30
2017-12-22T18:47:16.742Z,7.30
2017-12-22T18:49:45.302Z,7.30
2017-12-22T18:52:13.673Z,7.20
2017-12-22T18:54:41.344Z,7.30
2017-12-22T18:57:09.151Z,7.30
2017-12-22T18:59:36.876Z,7.30
2017-12-22T19:02:04.610Z,7.30
2017-12-22T19:04:32.482Z,7.30
2017-12-22T19:07:00.202Z,7.30
2017-12-22T19:09:28.732Z,7.30
2017-12-22T19:11:57.346Z,7.40
2017-12-22T19:14:25.154Z,7.30
2017-12-22T19:16:52.882Z,7.40
2017-12-22T19:19:20.554Z,7.40
2017-12-22T19:21:49.491Z,7.40
2017-12-22T19:24:17.212Z,7.40
2017-12-22T19:26:45.701Z,7.40
2017-12-22T19:29:13.449Z,7.40
2017-12-22T19:31:41.708Z,7.40
2017-12-22T19:34:09.470Z,7.40
2017-12-22T19:36:37.184Z,7.40
2017-12-22T19:39:05.080Z,7.50
2017-12-22T19:41:32.859Z,7.50
2017-12-22T19:44:00.570Z,7.50
2017-12-22T19:46:28.596Z,7.50
2017-12-22T19:48:56.470Z,7.50
2017-12-22T19:51:24.238Z,7.50
2017-12-22T19:53:51.989Z,7.50
2017-12-22T19:56:19.746Z,7.50
2017-12-22T19:58:48.392Z,7.50
2017-12-22T20:01:16.242Z,7.50
2017-12-22T20:03:44.092Z,7.50
2017-12-22T20:06:12.692Z,7.50
2017-12-22T20:08:40.384Z,7.50
2017-12-22T20:11:08.119Z,7.50
2017-12-22T20:13:35.813Z,7.50
2017-12-22T20:16:03.510Z,7.50
2017-12-22T20:18:31.393Z,7.60
2017-12-22T20:20:59.094Z,7.60
2017-12-22T20:23:27.050Z,7.50
2017-12-22T20:25:54.834Z,7.50
2017-12-22T20:28:22.896Z,7.50
2017-12-22T20:30:50.648Z,7.50
2017-12-22T20:33:18.318Z,7.40
2017-12-22T20:35:46.044Z,7.50
2017-12-22T20:38:14.498Z,7.50
2017-12-22T20:40:42.391Z,7.50
2017-12-22T20:43:10.094Z,7.50
2017-12-22T20:45:37.928Z,7.50
2017-12-22T20:48:06.391Z,7.50
2017-12-22T20:50:34.092Z,7.40
2017-12-22T20:53:01.756Z,7.40
2017-12-22T20:55:29.564Z,7.40
2017-12-22T20:57:57.320Z,7.30
2017-12-22T21:00:25.229Z,7.30
2017-12-22T21:02:52.946Z,7.30
2017-12-22T21:05:20.600Z,7.30
2017-12-22T21:07:48.310Z,7.30
2017-12-22T21:10:15.984Z,7.30
2017-12-22T21:12:44.537Z,7.30
2017-12-22T21:15:12.278Z,7.20
2017-12-22T21:17:40.060Z,7.20
2017-12-22T21:20:07.822Z,7.20
2017-12-22T21:22:36.634Z,7.20
2017-12-22T21:25:04.393Z,7.20
2017-12-22T21:27:32.902Z,7.20
2017-12-22T21:30:01.436Z,7.20
2017-12-22T21:32:29.937Z,7.10
2017-12-22T21:34:57.642Z,7.20
2017-12-22T21:37:25.443Z,7.20
2017-12-22T21:39:53.366Z,7.10
2017-12-22T21:42:21.855Z,7.30
2017-12-22T21:44:49.531Z,7.20
2017-12-22T21:47:17.347Z,7.30
2017-12-22T21:49:45.095Z,7.30
2017-12-22T21:52:12.858Z,7.30
2017-12-22T21:54:40.850Z,7.40
2017-12-22T21:57:09.486Z,7.50
2017-12-22T21:59:37.284Z,7.40
2017-12-22T22:02:06.886Z,7.50
2017-12-22T22:04:34.577Z,7.60
2017-12-22T22:07:03.155Z,7.60
2017-12-22T22:09:31.637Z,7.60
2017-12-22T22:11:59.332Z,7.60
2017-12-22T22:14:27.071Z,7.60
2017-12-22T22:16:54.793Z,7.50
2017-12-22T22:19:23.392Z,7.60
2017-12-22T22:21:51.530Z,7.50
2017-12-22T22:24:19.278Z,7.50
2017-12-22T22:26:47.109Z,7.40
2017-12-22T22:29:16.044Z,7.40
2017-12-22T22:31:44.267Z,7.30
2017-12-22T22:34:12.105Z,7.30
2017-12-22T22:36:39.899Z,7.20
2017-12-22T22:39:07.624Z,7.20
2017-12-22T22:41:35.478Z,7.10
2017-12-22T22:44:03.180Z,7.00
2017-12-22T22:46:31.086Z,7.00
2017-12-22T22:49:00.413Z,6.80
2017-12-22T22:51:28.189Z,6.80
2017-12-22T22:53:55.942Z,6.80
2017-12-22T22:56:23.811Z,6.70
2017-12-22T22:58:51.508Z,6.70
2017-12-22T23:01:19.213Z,6.70
2017-12-22T23:03:47.079Z,6.60
2017-12-22T23:06:14.872Z,6.60
2017-12-22T23:08:42.572Z,6.60
2017-12-22T23:11:10.307Z,6.60
2017-12-22T23:13:38.011Z,6.50
2017-12-22T23:16:06.044Z,6.50
2017-12-22T23:18:33.794Z,6.40
2017-12-22T23:21:01.518Z,6.40
2017-12-22T23:23:30.024Z,6.30
2017-12-22T23:25:57.886Z,6.30
2017-12-22T23:28:25.731Z,6.40
2017-12-22T23:30:54.211Z,6.30
2017-12-22T23:33:22.763Z,6.20
2017-12-22T23:35:50.498Z,6.20
2017-12-22T23:38:18.293Z,6.30
2017-12-22T23:40:46.101Z,6.20
2017-12-22T23:43:14.572Z,6.30
2017-12-22T23:45:43.117Z,6.40
2017-12-22T23:48:10.890Z,6.30
2017-12-22T23:50:38.604Z,6.40
2017-12-22T23:53:06.350Z,6.30
2017-12-22T23:55:35.633Z,6.30
2017-12-22T23:58:03.339Z,6.20
